sensor_id;sensor_type;location;lat;lon;timestamp;temperature;humidity
3190;DHT22;1606;51.946;10.558;2024-03-08T00:00:13;5.10;99.90
3190;DHT22;1606;51.946;10.558;2024-03-08T00:02:45;5.00;99.90
3190;DHT22;1606;51.946;10.558;2024-03-08T00:05:14;5.00;99.90
3190;DHT22;1606;51.946;10.558;2024-03-08T00:07:42;4.90;99.90
3190;DHT22;1606;51.946;10.558;2024-03-08T00:10:12;4.90;99.90
3190;DHT22;1606;51.946;10.558;2024-03-08T00:12:43;4.80;99.90
3190;DHT22;1606;51.946;10.558;2024-03-08T00:15:13;4.80;99.90
3190;DHT22;1606;51.946;10.558;2024-03-08T00:17:45;4.70;99.90
3190;DHT22;1606;51.946;10.558;2024-03-08T00:20:15;4.80;99.90
3190;DHT22;1606;51.946;10.558;2024-03-08T00:22:44;4.70;99.90
3190;DHT22;1606;51.946;10.558;2024-03-08T00:25:12;4.60;99.90
3190;DHT22;1606;51.946;10.558;2024-03-08T00:27:41;4.60;99.90
3190;DHT22;1606;51.946;10.558;2024-03-08T00:30:10;4.50;99.90
3190;DHT22;1606;51.946;10.558;2024-03-08T00:32:41;4.40;99.90
3190;DHT22;1606;51.946;10.558;2024-03-08T00:35:10;4.40;99.90
3190;DHT22;1606;51.946;10.558;2024-03-08T00:37:40;4.50;99.90
3190;DHT22;1606;51.946;10.558;2024-03-08T00:40:09;4.70;99.90
3190;DHT22;1606;51.946;10.558;2024-03-08T00:42:38;4.70;99.90
3190;DHT22;1606;51.946;10.558;2024-03-08T00:45:07;4.80;99.90
3190;DHT22;1606;51.946;10.558;2024-03-08T00:47:37;4.90;99.90
3190;DHT22;1606;51.946;10.558;2024-03-08T00:50:06;5.00;99.90
3190;DHT22;1606;51.946;10.558;2024-03-08T00:52:36;4.90;99.90
3190;DHT22;1606;51.946;10.558;2024-03-08T00:55:04;4.90;99.90
3190;DHT22;1606;51.946;10.558;2024-03-08T00:57:32;4.90;99.90
3190;DHT22;1606;51.946;10.558;2024-03-08T01:00:03;4.80;99.90
3190;DHT22;1606;51.946;10.558;2024-03-08T01:02:32;4.70;99.90
3190;DHT22;1606;51.946;10.558;2024-03-08T01:05:02;4.70;99.90
3190;DHT22;1606;51.946;10.558;2024-03-08T01:07:32;4.80;99.90
3190;DHT22;1606;51.946;10.558;2024-03-08T01:10:02;4.60;99.90
3190;DHT22;1606;51.946;10.558;2024-03-08T01:12:30;4.50;99.90
3190;DHT22;1606;51.946;10.558;2024-03-08T01:14:58;4.50;99.90
3190;DHT22;1606;51.946;10.558;2024-03-08T01:17:26;4.60;99.90
3190;DHT22;1606;51.946;10.558;2024-03-08T01:19:54;4.50;99.90
3190;DHT22;1606;51.946;10.558;2024-03-08T01:22:22;4.40;99.90
3190;DHT22;1606;51.946;10.558;2024-03-08T01:24:50;4.40;99.90
3190;DHT22;1606;51.946;10.558;2024-03-08T01:27:19;4.50;99.90
3190;DHT22;1606;51.946;10.558;2024-03-08T01:29:47;4.60;99.90
3190;DHT22;1606;51.946;10.558;2024-03-08T01:32:15;4.60;99.90
3190;DHT22;1606;51.946;10.558;2024-03-08T01:34:42;4.60;99.90
3190;DHT22;1606;51.946;10.558;2024-03-08T01:37:11;4.60;99.90
3190;DHT22;1606;51.946;10.558;2024-03-08T01:39:41;4.70;99.90
3190;DHT22;1606;51.946;10.558;2024-03-08T01:42:09;4.70;99.90
3190;DHT22;1606;51.946;10.558;2024-03-08T01:44:39;4.50;99.90
3190;DHT22;1606;51.946;10.558;2024-03-08T01:47:07;4.40;99.90
3190;DHT22;1606;51.946;10.558;2024-03-08T01:49:35;4.10;99.90
3190;DHT22;1606;51.946;10.558;2024-03-08T01:52:03;4.10;99.90
3190;DHT22;1606;51.946;10.558;2024-03-08T01:54:31;4.00;99.90
3190;DHT22;1606;51.946;10.558;2024-03-08T01:56:59;4.10;99.90
3190;DHT22;1606;51.946;10.558;2024-03-08T01:59:27;4.10;99.90
3190;DHT22;1606;51.946;10.558;2024-03-08T02:02:01;4.20;99.90
3190;DHT22;1606;51.946;10.558;2024-03-08T02:04:30;4.10;99.90
3190;DHT22;1606;51.946;10.558;2024-03-08T02:06:58;4.10;99.90
3190;DHT22;1606;51.946;10.558;2024-03-08T02:09:27;4.10;99.90
3190;DHT22;1606;51.946;10.558;2024-03-08T02:11:56;4.20;99.90
3190;DHT22;1606;51.946;10.558;2024-03-08T02:14:25;4.30;99.90
3190;DHT22;1606;51.946;10.558;2024-03-08T02:16:53;4.40;99.90
3190;DHT22;1606;51.946;10.558;2024-03-08T02:19:22;4.30;99.90
3190;DHT22;1606;51.946;10.558;2024-03-08T02:21:51;4.30;99.90
3190;DHT22;1606;51.946;10.558;2024-03-08T02:24:20;4.30;99.90
3190;DHT22;1606;51.946;10.558;2024-03-08T02:26:50;4.10;99.90
3190;DHT22;1606;51.946;10.558;2024-03-08T02:29:18;3.90;99.90
3190;DHT22;1606;51.946;10.558;2024-03-08T02:31:46;3.80;99.90
3190;DHT22;1606;51.946;10.558;2024-03-08T02:34:14;3.90;99.90
3190;DHT22;1606;51.946;10.558;2024-03-08T02:36:42;4.00;99.90
3190;DHT22;1606;51.946;10.558;2024-03-08T02:39:11;4.10;99.90
3190;DHT22;1606;51.946;10.558;2024-03-08T02:41:39;4.10;99.90
3190;DHT22;1606;51.946;10.558;2024-03-08T02:44:07;4.20;99.90
3190;DHT22;1606;51.946;10.558;2024-03-08T02:46:35;4.20;99.90
3190;DHT22;1606;51.946;10.558;2024-03-08T02:49:03;4.10;99.90
3190;DHT22;1606;51.946;10.558;2024-03-08T02:51:31;4.00;99.90
3190;DHT22;1606;51.946;10.558;2024-03-08T02:54:02;3.80;99.90
3190;DHT22;1606;51.946;10.558;2024-03-08T02:56:32;3.60;99.90
3190;DHT22;1606;51.946;10.558;2024-03-08T02:59:01;3.50;99.90
3190;DHT22;1606;51.946;10.558;2024-03-08T03:01:29;3.20;99.90
3190;DHT22;1606;51.946;10.558;2024-03-08T03:03:58;3.00;99.90
3190;DHT22;1606;51.946;10.558;2024-03-08T03:06:26;3.00;99.90
3190;DHT22;1606;51.946;10.558;2024-03-08T03:08:54;2.90;99.90
3190;DHT22;1606;51.946;10.558;2024-03-08T03:11:24;2.90;99.90
3190;DHT22;1606;51.946;10.558;2024-03-08T03:13:55;2.90;99.90
3190;DHT22;1606;51.946;10.558;2024-03-08T03:16:23;3.00;99.90
3190;DHT22;1606;51.946;10.558;2024-03-08T03:18:51;2.90;99.90
3190;DHT22;1606;51.946;10.558;2024-03-08T03:21:19;3.00;99.90
3190;DHT22;1606;51.946;10.558;2024-03-08T03:23:48;3.10;99.90
3190;DHT22;1606;51.946;10.558;2024-03-08T03:26:16;3.00;99.90
3190;DHT22;1606;51.946;10.558;2024-03-08T03:28:45;3.10;99.90
3190;DHT22;1606;51.946;10.558;2024-03-08T03:31:14;3.20;99.90
3190;DHT22;1606;51.946;10.558;2024-03-08T03:33:44;3.30;99.90
3190;DHT22;1606;51.946;10.558;2024-03-08T03:36:12;3.30;99.90
3190;DHT22;1606;51.946;10.558;2024-03-08T03:38:41;3.40;99.90
3190;DHT22;1606;51.946;10.558;2024-03-08T03:41:09;3.30;99.90
3190;DHT22;1606;51.946;10.558;2024-03-08T03:43:37;3.10;99.90
3190;DHT22;1606;51.946;10.558;2024-03-08T03:46:06;3.00;99.90
3190;DHT22;1606;51.946;10.558;2024-03-08T03:48:36;3.00;99.90
3190;DHT22;1606;51.946;10.558;2024-03-08T03:51:04;3.10;99.90
3190;DHT22;1606;51.946;10.558;2024-03-08T03:53:32;3.10;99.90
3190;DHT22;1606;51.946;10.558;2024-03-08T03:56:00;3.10;99.90
3190;DHT22;1606;51.946;10.558;2024-03-08T03:58:27;3.10;99.90
3190;DHT22;1606;51.946;10.558;2024-03-08T04:00:55;3.10;99.90
3190;DHT22;1606;51.946;10.558;2024-03-08T04:03:23;2.90;99.90
3190;DHT22;1606;51.946;10.558;2024-03-08T04:05:52;2.90;99.90
3190;DHT22;1606;51.946;10.558;2024-03-08T04:08:20;3.00;99.90
3190;DHT22;1606;51.946;10.558;2024-03-08T04:10:50;3.10;99.90
3190;DHT22;1606;51.946;10.558;2024-03-08T04:13:18;2.90;99.90
3190;DHT22;1606;51.946;10.558;2024-03-08T04:15:47;2.90;99.90
3190;DHT22;1606;51.946;10.558;2024-03-08T04:18:16;2.70;99.90
3190;DHT22;1606;51.946;10.558;2024-03-08T04:20:44;2.70;99.90
3190;DHT22;1606;51.946;10.558;2024-03-08T04:23:15;2.60;99.90
3190;DHT22;1606;51.946;10.558;2024-03-08T04:25:44;2.70;99.90
3190;DHT22;1606;51.946;10.558;2024-03-08T04:28:18;2.60;99.90
3190;DHT22;1606;51.946;10.558;2024-03-08T04:30:46;2.70;99.90
3190;DHT22;1606;51.946;10.558;2024-03-08T04:33:14;2.70;99.90
3190;DHT22;1606;51.946;10.558;2024-03-08T04:35:44;2.70;99.90
3190;DHT22;1606;51.946;10.558;2024-03-08T04:38:15;2.80;99.90
3190;DHT22;1606;51.946;10.558;2024-03-08T04:40:43;2.90;99.90
3190;DHT22;1606;51.946;10.558;2024-03-08T04:43:11;2.90;99.90
3190;DHT22;1606;51.946;10.558;2024-03-08T04:45:39;3.00;99.90
3190;DHT22;1606;51.946;10.558;2024-03-08T04:48:10;3.00;99.90
3190;DHT22;1606;51.946;10.558;2024-03-08T04:50:39;2.90;99.90
3190;DHT22;1606;51.946;10.558;2024-03-08T04:53:07;2.70;99.90
3190;DHT22;1606;51.946;10.558;2024-03-08T04:55:36;2.60;99.90
3190;DHT22;1606;51.946;10.558;2024-03-08T04:58:05;2.60;99.90
3190;DHT22;1606;51.946;10.558;2024-03-08T05:00:33;2.70;99.90
3190;DHT22;1606;51.946;10.558;2024-03-08T05:03:02;2.70;99.90
3190;DHT22;1606;51.946;10.558;2024-03-08T05:05:31;2.70;99.90
3190;DHT22;1606;51.946;10.558;2024-03-08T05:08:00;2.70;99.90
3190;DHT22;1606;51.946;10.558;2024-03-08T05:10:29;2.80;99.90
3190;DHT22;1606;51.946;10.558;2024-03-08T05:12:58;2.60;99.90
3190;DHT22;1606;51.946;10.558;2024-03-08T05:15:26;2.60;99.90
3190;DHT22;1606;51.946;10.558;2024-03-08T05:17:54;2.70;99.90
3190;DHT22;1606;51.946;10.558;2024-03-08T05:20:24;2.80;99.90
3190;DHT22;1606;51.946;10.558;2024-03-08T05:22:52;2.90;99.90
3190;DHT22;1606;51.946;10.558;2024-03-08T05:25:20;2.90;99.90
3190;DHT22;1606;51.946;10.558;2024-03-08T05:27:49;3.00;99.90
3190;DHT22;1606;51.946;10.558;2024-03-08T05:30:18;2.90;99.90
3190;DHT22;1606;51.946;10.558;2024-03-08T05:32:48;2.70;99.90
3190;DHT22;1606;51.946;10.558;2024-03-08T05:35:16;2.70;99.90
3190;DHT22;1606;51.946;10.558;2024-03-08T05:37:45;2.70;99.90
3190;DHT22;1606;51.946;10.558;2024-03-08T05:40:12;2.80;99.90
3190;DHT22;1606;51.946;10.558;2024-03-08T05:42:45;2.80;99.90
3190;DHT22;1606;51.946;10.558;2024-03-08T05:45:13;2.70;99.90
3190;DHT22;1606;51.946;10.558;2024-03-08T05:47:43;2.80;99.90
3190;DHT22;1606;51.946;10.558;2024-03-08T05:50:11;2.70;99.90
3190;DHT22;1606;51.946;10.558;2024-03-08T05:52:39;2.80;99.90
3190;DHT22;1606;51.946;10.558;2024-03-08T05:55:07;2.90;99.90
3190;DHT22;1606;51.946;10.558;2024-03-08T05:57:36;2.80;99.90
3190;DHT22;1606;51.946;10.558;2024-03-08T06:00:07;2.90;99.90
3190;DHT22;1606;51.946;10.558;2024-03-08T06:02:38;3.00;99.90
3190;DHT22;1606;51.946;10.558;2024-03-08T06:05:10;3.10;99.90
3190;DHT22;1606;51.946;10.558;2024-03-08T06:07:38;3.20;99.90
3190;DHT22;1606;51.946;10.558;2024-03-08T06:10:08;3.20;99.90
3190;DHT22;1606;51.946;10.558;2024-03-08T06:12:38;3.10;99.90
3190;DHT22;1606;51.946;10.558;2024-03-08T06:15:09;3.00;99.90
3190;DHT22;1606;51.946;10.558;2024-03-08T06:17:41;3.10;99.90
3190;DHT22;1606;51.946;10.558;2024-03-08T06:20:11;3.20;99.90
3190;DHT22;1606;51.946;10.558;2024-03-08T06:22:40;3.00;99.90
3190;DHT22;1606;51.946;10.558;2024-03-08T06:25:09;3.00;99.90
3190;DHT22;1606;51.946;10.558;2024-03-08T06:27:37;3.00;99.90
3190;DHT22;1606;51.946;10.558;2024-03-08T06:30:06;3.00;99.90
3190;DHT22;1606;51.946;10.558;2024-03-08T06:32:36;3.10;99.90
3190;DHT22;1606;51.946;10.558;2024-03-08T06:35:05;3.20;99.90
3190;DHT22;1606;51.946;10.558;2024-03-08T06:37:35;3.20;99.90
3190;DHT22;1606;51.946;10.558;2024-03-08T06:40:04;3.10;99.90
3190;DHT22;1606;51.946;10.558;2024-03-08T06:42:34;3.10;99.90
3190;DHT22;1606;51.946;10.558;2024-03-08T06:45:03;3.10;99.90
3190;DHT22;1606;51.946;10.558;2024-03-08T06:47:32;3.10;99.90
3190;DHT22;1606;51.946;10.558;2024-03-08T06:50:01;3.00;99.90
3190;DHT22;1606;51.946;10.558;2024-03-08T06:52:30;3.10;99.90
3190;DHT22;1606;51.946;10.558;2024-03-08T06:55:00;3.20;99.90
3190;DHT22;1606;51.946;10.558;2024-03-08T06:57:32;3.20;99.90
3190;DHT22;1606;51.946;10.558;2024-03-08T06:59:59;3.30;99.90
3190;DHT22;1606;51.946;10.558;2024-03-08T07:02:28;3.20;99.90
3190;DHT22;1606;51.946;10.558;2024-03-08T07:04:58;3.20;99.90
3190;DHT22;1606;51.946;10.558;2024-03-08T07:07:26;3.20;99.90
3190;DHT22;1606;51.946;10.558;2024-03-08T07:09:54;3.30;99.90
3190;DHT22;1606;51.946;10.558;2024-03-08T07:12:25;3.30;99.90
3190;DHT22;1606;51.946;10.558;2024-03-08T07:14:53;3.30;99.90
3190;DHT22;1606;51.946;10.558;2024-03-08T07:17:21;3.40;99.90
3190;DHT22;1606;51.946;10.558;2024-03-08T07:19:51;3.30;99.90
3190;DHT22;1606;51.946;10.558;2024-03-08T07:22:20;3.20;99.90
3190;DHT22;1606;51.946;10.558;2024-03-08T07:24:50;3.00;99.90
3190;DHT22;1606;51.946;10.558;2024-03-08T07:27:38;3.00;99.90
3190;DHT22;1606;51.946;10.558;2024-03-08T07:30:07;2.90;99.90
3190;DHT22;1606;51.946;10.558;2024-03-08T07:32:37;2.90;99.90
3190;DHT22;1606;51.946;10.558;2024-03-08T07:35:05;3.00;99.90
3190;DHT22;1606;51.946;10.558;2024-03-08T07:37:33;3.20;99.90
3190;DHT22;1606;51.946;10.558;2024-03-08T07:40:01;3.30;99.90
3190;DHT22;1606;51.946;10.558;2024-03-08T07:42:29;3.30;99.90
3190;DHT22;1606;51.946;10.558;2024-03-08T07:44:58;3.30;99.90
3190;DHT22;1606;51.946;10.558;2024-03-08T07:47:26;3.50;99.90
3190;DHT22;1606;51.946;10.558;2024-03-08T07:49:54;3.60;99.90
3190;DHT22;1606;51.946;10.558;2024-03-08T07:52:24;3.70;99.90
3190;DHT22;1606;51.946;10.558;2024-03-08T07:54:52;3.70;99.90
3190;DHT22;1606;51.946;10.558;2024-03-08T07:57:21;3.70;99.90
3190;DHT22;1606;51.946;10.558;2024-03-08T07:59:49;3.80;99.90
3190;DHT22;1606;51.946;10.558;2024-03-08T08:02:18;3.90;99.90
3190;DHT22;1606;51.946;10.558;2024-03-08T08:04:47;4.00;99.90
3190;DHT22;1606;51.946;10.558;2024-03-08T08:07:15;4.10;99.90
3190;DHT22;1606;51.946;10.558;2024-03-08T08:09:43;4.10;99.90
3190;DHT22;1606;51.946;10.558;2024-03-08T08:12:11;4.20;99.90
3190;DHT22;1606;51.946;10.558;2024-03-08T08:14:39;4.10;99.90
3190;DHT22;1606;51.946;10.558;2024-03-08T08:17:08;4.20;99.90
3190;DHT22;1606;51.946;10.558;2024-03-08T08:19:37;4.30;99.90
3190;DHT22;1606;51.946;10.558;2024-03-08T08:22:06;4.30;99.90
3190;DHT22;1606;51.946;10.558;2024-03-08T08:24:35;4.30;99.90
3190;DHT22;1606;51.946;10.558;2024-03-08T08:27:08;4.40;99.90
3190;DHT22;1606;51.946;10.558;2024-03-08T08:29:35;4.30;99.90
3190;DHT22;1606;51.946;10.558;2024-03-08T08:32:04;4.30;99.90
3190;DHT22;1606;51.946;10.558;2024-03-08T08:34:32;4.50;99.90
3190;DHT22;1606;51.946;10.558;2024-03-08T08:37:02;4.50;99.90
3190;DHT22;1606;51.946;10.558;2024-03-08T08:39:30;4.40;99.90
3190;DHT22;1606;51.946;10.558;2024-03-08T08:41:59;4.50;99.90
3190;DHT22;1606;51.946;10.558;2024-03-08T08:44:27;4.60;99.90
3190;DHT22;1606;51.946;10.558;2024-03-08T08:46:55;4.70;99.90
3190;DHT22;1606;51.946;10.558;2024-03-08T08:49:35;4.80;99.90
3190;DHT22;1606;51.946;10.558;2024-03-08T08:52:06;4.90;99.90
3190;DHT22;1606;51.946;10.558;2024-03-08T08:54:42;5.10;99.90
3190;DHT22;1606;51.946;10.558;2024-03-08T08:57:16;5.10;99.90
3190;DHT22;1606;51.946;10.558;2024-03-08T08:59:44;5.00;99.90
3190;DHT22;1606;51.946;10.558;2024-03-08T09:02:12;5.10;99.90
3190;DHT22;1606;51.946;10.558;2024-03-08T09:04:44;5.20;99.90
3190;DHT22;1606;51.946;10.558;2024-03-08T09:07:14;5.30;99.90
3190;DHT22;1606;51.946;10.558;2024-03-08T09:09:43;5.30;99.90
3190;DHT22;1606;51.946;10.558;2024-03-08T09:12:11;5.20;99.90
3190;DHT22;1606;51.946;10.558;2024-03-08T09:14:40;5.30;99.90
3190;DHT22;1606;51.946;10.558;2024-03-08T09:17:08;5.40;99.90
3190;DHT22;1606;51.946;10.558;2024-03-08T09:19:36;5.40;99.90
3190;DHT22;1606;51.946;10.558;2024-03-08T09:22:04;5.50;99.90
3190;DHT22;1606;51.946;10.558;2024-03-08T09:24:33;5.50;99.90
3190;DHT22;1606;51.946;10.558;2024-03-08T09:27:01;5.50;99.90
3190;DHT22;1606;51.946;10.558;2024-03-08T09:29:30;5.60;99.90
3190;DHT22;1606;51.946;10.558;2024-03-08T09:31:58;5.70;99.90
3190;DHT22;1606;51.946;10.558;2024-03-08T09:34:25;5.90;99.90
3190;DHT22;1606;51.946;10.558;2024-03-08T09:37:03;6.10;99.90
3190;DHT22;1606;51.946;10.558;2024-03-08T09:39:33;6.20;99.90
3190;DHT22;1606;51.946;10.558;2024-03-08T09:42:01;6.30;99.90
3190;DHT22;1606;51.946;10.558;2024-03-08T09:44:30;6.40;99.90
3190;DHT22;1606;51.946;10.558;2024-03-08T09:46:59;6.40;99.90
3190;DHT22;1606;51.946;10.558;2024-03-08T09:49:28;6.40;99.90
3190;DHT22;1606;51.946;10.558;2024-03-08T09:51:57;6.40;99.90
3190;DHT22;1606;51.946;10.558;2024-03-08T09:54:25;6.40;99.90
3190;DHT22;1606;51.946;10.558;2024-03-08T09:56:55;6.60;99.90
3190;DHT22;1606;51.946;10.558;2024-03-08T09:59:23;6.90;99.90
3190;DHT22;1606;51.946;10.558;2024-03-08T10:02:15;6.80;99.90
3190;DHT22;1606;51.946;10.558;2024-03-08T10:04:44;7.00;99.90
3190;DHT22;1606;51.946;10.558;2024-03-08T10:07:14;6.90;99.90
3190;DHT22;1606;51.946;10.558;2024-03-08T10:09:42;7.10;99.90
3190;DHT22;1606;51.946;10.558;2024-03-08T10:12:18;7.10;99.90
3190;DHT22;1606;51.946;10.558;2024-03-08T10:14:46;7.20;99.90
3190;DHT22;1606;51.946;10.558;2024-03-08T10:17:14;7.40;99.90
3190;DHT22;1606;51.946;10.558;2024-03-08T10:19:49;7.70;99.90
3190;DHT22;1606;51.946;10.558;2024-03-08T10:22:19;7.90;99.90
3190;DHT22;1606;51.946;10.558;2024-03-08T10:24:47;8.20;99.90
3190;DHT22;1606;51.946;10.558;2024-03-08T10:27:18;8.50;99.90
3190;DHT22;1606;51.946;10.558;2024-03-08T10:29:47;8.70;99.90
3190;DHT22;1606;51.946;10.558;2024-03-08T10:32:15;8.50;99.90
3190;DHT22;1606;51.946;10.558;2024-03-08T10:34:43;8.70;99.90
3190;DHT22;1606;51.946;10.558;2024-03-08T10:37:15;8.90;99.90
3190;DHT22;1606;51.946;10.558;2024-03-08T10:39:51;9.00;99.90
3190;DHT22;1606;51.946;10.558;2024-03-08T10:42:28;9.20;99.90
3190;DHT22;1606;51.946;10.558;2024-03-08T10:45:03;9.20;99.90
3190;DHT22;1606;51.946;10.558;2024-03-08T10:47:40;9.00;99.90
3190;DHT22;1606;51.946;10.558;2024-03-08T10:50:11;8.90;99.90
3190;DHT22;1606;51.946;10.558;2024-03-08T10:52:43;8.90;99.90
3190;DHT22;1606;51.946;10.558;2024-03-08T10:55:12;9.00;99.90
3190;DHT22;1606;51.946;10.558;2024-03-08T10:57:43;9.00;99.90
3190;DHT22;1606;51.946;10.558;2024-03-08T11:00:12;9.20;99.90
3190;DHT22;1606;51.946;10.558;2024-03-08T11:02:43;9.20;99.90
3190;DHT22;1606;51.946;10.558;2024-03-08T11:05:21;9.30;99.90
3190;DHT22;1606;51.946;10.558;2024-03-08T11:07:59;9.70;99.90
3190;DHT22;1606;51.946;10.558;2024-03-08T11:10:28;9.90;99.90
3190;DHT22;1606;51.946;10.558;2024-03-08T11:12:57;9.90;99.90
3190;DHT22;1606;51.946;10.558;2024-03-08T11:15:26;10.00;99.90
3190;DHT22;1606;51.946;10.558;2024-03-08T11:17:58;10.20;99.90
3190;DHT22;1606;51.946;10.558;2024-03-08T11:20:27;10.40;99.90
3190;DHT22;1606;51.946;10.558;2024-03-08T11:23:03;10.10;99.90
3190;DHT22;1606;51.946;10.558;2024-03-08T11:25:38;10.20;99.90
3190;DHT22;1606;51.946;10.558;2024-03-08T11:28:14;10.50;99.90
3190;DHT22;1606;51.946;10.558;2024-03-08T11:30:45;10.70;99.90
3190;DHT22;1606;51.946;10.558;2024-03-08T11:33:15;10.90;99.90
3190;DHT22;1606;51.946;10.558;2024-03-08T11:35:44;11.00;99.90
3190;DHT22;1606;51.946;10.558;2024-03-08T11:38:13;11.00;99.90
3190;DHT22;1606;51.946;10.558;2024-03-08T11:40:46;11.10;99.90
3190;DHT22;1606;51.946;10.558;2024-03-08T11:43:18;11.20;99.50
3190;DHT22;1606;51.946;10.558;2024-03-08T11:45:46;11.10;99.00
3190;DHT22;1606;51.946;10.558;2024-03-08T11:48:14;11.20;98.90
3190;DHT22;1606;51.946;10.558;2024-03-08T11:50:42;11.20;99.70
3190;DHT22;1606;51.946;10.558;2024-03-08T11:53:11;11.20;99.90
3190;DHT22;1606;51.946;10.558;2024-03-08T11:55:40;11.30;99.50
3190;DHT22;1606;51.946;10.558;2024-03-08T11:58:09;11.40;99.30
3190;DHT22;1606;51.946;10.558;2024-03-08T12:00:41;11.40;98.20
3190;DHT22;1606;51.946;10.558;2024-03-08T12:03:09;11.30;97.80
3190;DHT22;1606;51.946;10.558;2024-03-08T12:05:37;11.40;98.10
3190;DHT22;1606;51.946;10.558;2024-03-08T12:08:06;11.30;98.40
3190;DHT22;1606;51.946;10.558;2024-03-08T12:10:40;11.40;99.00
3190;DHT22;1606;51.946;10.558;2024-03-08T12:13:09;11.50;98.40
3190;DHT22;1606;51.946;10.558;2024-03-08T12:15:41;11.40;98.40
3190;DHT22;1606;51.946;10.558;2024-03-08T12:18:11;11.20;99.00
3190;DHT22;1606;51.946;10.558;2024-03-08T12:20:39;11.20;99.00
3190;DHT22;1606;51.946;10.558;2024-03-08T12:23:15;11.30;98.50
3190;DHT22;1606;51.946;10.558;2024-03-08T12:25:43;11.50;98.10
3190;DHT22;1606;51.946;10.558;2024-03-08T12:28:12;11.70;98.30
3190;DHT22;1606;51.946;10.558;2024-03-08T12:30:49;11.80;98.00
3190;DHT22;1606;51.946;10.558;2024-03-08T12:33:19;11.60;97.70
3190;DHT22;1606;51.946;10.558;2024-03-08T12:35:51;11.30;98.00
3190;DHT22;1606;51.946;10.558;2024-03-08T12:38:22;11.20;98.20
3190;DHT22;1606;51.946;10.558;2024-03-08T12:40:55;11.40;98.50
3190;DHT22;1606;51.946;10.558;2024-03-08T12:43:24;11.70;98.10
3190;DHT22;1606;51.946;10.558;2024-03-08T12:45:54;11.70;98.30
3190;DHT22;1606;51.946;10.558;2024-03-08T12:48:22;11.70;98.10
3190;DHT22;1606;51.946;10.558;2024-03-08T12:50:50;12.00;97.00
3190;DHT22;1606;51.946;10.558;2024-03-08T12:53:18;11.80;96.70
3190;DHT22;1606;51.946;10.558;2024-03-08T12:55:46;11.60;97.00
3190;DHT22;1606;51.946;10.558;2024-03-08T12:58:14;11.40;97.40
3190;DHT22;1606;51.946;10.558;2024-03-08T13:00:44;11.60;98.30
3190;DHT22;1606;51.946;10.558;2024-03-08T13:03:13;11.80;97.70
3190;DHT22;1606;51.946;10.558;2024-03-08T13:05:41;11.80;97.10
3190;DHT22;1606;51.946;10.558;2024-03-08T13:08:10;11.80;97.30
3190;DHT22;1606;51.946;10.558;2024-03-08T13:10:40;11.90;97.10
3190;DHT22;1606;51.946;10.558;2024-03-08T13:13:10;11.70;97.00
3190;DHT22;1606;51.946;10.558;2024-03-08T13:15:40;11.90;97.10
3190;DHT22;1606;51.946;10.558;2024-03-08T13:18:09;12.00;97.10
3190;DHT22;1606;51.946;10.558;2024-03-08T13:20:39;12.00;96.20
3190;DHT22;1606;51.946;10.558;2024-03-08T13:23:13;12.10;96.60
3190;DHT22;1606;51.946;10.558;2024-03-08T13:25:41;12.10;96.80
3190;DHT22;1606;51.946;10.558;2024-03-08T13:28:10;12.20;96.90
3190;DHT22;1606;51.946;10.558;2024-03-08T13:30:37;12.30;96.90
3190;DHT22;1606;51.946;10.558;2024-03-08T13:33:05;12.20;96.30
3190;DHT22;1606;51.946;10.558;2024-03-08T13:35:34;12.10;96.60
3190;DHT22;1606;51.946;10.558;2024-03-08T13:38:06;12.00;96.80
3190;DHT22;1606;51.946;10.558;2024-03-08T13:40:36;12.00;97.20
3190;DHT22;1606;51.946;10.558;2024-03-08T13:43:04;12.20;97.00
3190;DHT22;1606;51.946;10.558;2024-03-08T13:45:34;12.30;96.70
3190;DHT22;1606;51.946;10.558;2024-03-08T13:48:05;12.40;97.10
3190;DHT22;1606;51.946;10.558;2024-03-08T13:50:33;12.50;96.90
3190;DHT22;1606;51.946;10.558;2024-03-08T13:53:02;12.60;96.70
3190;DHT22;1606;51.946;10.558;2024-03-08T13:55:32;12.40;95.70
3190;DHT22;1606;51.946;10.558;2024-03-08T13:58:00;12.30;95.90
3190;DHT22;1606;51.946;10.558;2024-03-08T14:00:30;12.40;95.70
3190;DHT22;1606;51.946;10.558;2024-03-08T14:03:00;12.30;95.60
3190;DHT22;1606;51.946;10.558;2024-03-08T14:05:28;12.20;95.80
3190;DHT22;1606;51.946;10.558;2024-03-08T14:07:58;12.20;95.70
3190;DHT22;1606;51.946;10.558;2024-03-08T14:10:27;12.20;95.60
3190;DHT22;1606;51.946;10.558;2024-03-08T14:12:59;12.20;96.10
3190;DHT22;1606;51.946;10.558;2024-03-08T14:15:27;12.10;96.00
3190;DHT22;1606;51.946;10.558;2024-03-08T14:17:55;12.00;96.20
3190;DHT22;1606;51.946;10.558;2024-03-08T14:20:24;12.10;95.90
3190;DHT22;1606;51.946;10.558;2024-03-08T14:22:53;12.00;95.80
3190;DHT22;1606;51.946;10.558;2024-03-08T14:25:22;11.90;95.80
3190;DHT22;1606;51.946;10.558;2024-03-08T14:27:53;12.00;96.00
3190;DHT22;1606;51.946;10.558;2024-03-08T14:30:26;12.00;96.00
3190;DHT22;1606;51.946;10.558;2024-03-08T14:33:02;11.90;96.50
3190;DHT22;1606;51.946;10.558;2024-03-08T14:35:32;11.70;95.60
3190;DHT22;1606;51.946;10.558;2024-03-08T14:38:01;11.60;96.10
3190;DHT22;1606;51.946;10.558;2024-03-08T14:40:29;11.50;95.80
3190;DHT22;1606;51.946;10.558;2024-03-08T14:42:58;11.30;96.10
3190;DHT22;1606;51.946;10.558;2024-03-08T14:45:30;11.40;96.60
3190;DHT22;1606;51.946;10.558;2024-03-08T14:47:58;11.40;96.60
3190;DHT22;1606;51.946;10.558;2024-03-08T14:50:29;11.50;96.90
3190;DHT22;1606;51.946;10.558;2024-03-08T14:52:58;11.50;97.00
3190;DHT22;1606;51.946;10.558;2024-03-08T14:55:27;11.40;96.90
3190;DHT22;1606;51.946;10.558;2024-03-08T14:57:57;11.30;96.70
3190;DHT22;1606;51.946;10.558;2024-03-08T15:00:25;11.30;96.40
3190;DHT22;1606;51.946;10.558;2024-03-08T15:03:02;11.20;96.50
3190;DHT22;1606;51.946;10.558;2024-03-08T15:05:31;11.10;96.90
3190;DHT22;1606;51.946;10.558;2024-03-08T15:08:02;11.10;97.00
3190;DHT22;1606;51.946;10.558;2024-03-08T15:10:36;11.20;97.50
3190;DHT22;1606;51.946;10.558;2024-03-08T15:13:07;11.30;97.20
3190;DHT22;1606;51.946;10.558;2024-03-08T15:15:42;11.40;97.30
3190;DHT22;1606;51.946;10.558;2024-03-08T15:18:11;11.30;96.80
3190;DHT22;1606;51.946;10.558;2024-03-08T15:20:39;11.30;97.30
3190;DHT22;1606;51.946;10.558;2024-03-08T15:23:07;11.20;97.00
3190;DHT22;1606;51.946;10.558;2024-03-08T15:25:36;11.10;97.10
3190;DHT22;1606;51.946;10.558;2024-03-08T15:28:05;11.20;97.20
3190;DHT22;1606;51.946;10.558;2024-03-08T15:30:39;11.40;97.00
3190;DHT22;1606;51.946;10.558;2024-03-08T15:33:14;11.40;96.70
3190;DHT22;1606;51.946;10.558;2024-03-08T15:35:50;11.40;97.70
3190;DHT22;1606;51.946;10.558;2024-03-08T15:38:24;11.20;96.70
3190;DHT22;1606;51.946;10.558;2024-03-08T15:40:54;11.10;96.90
3190;DHT22;1606;51.946;10.558;2024-03-08T15:43:22;11.20;96.70
3190;DHT22;1606;51.946;10.558;2024-03-08T15:45:52;11.00;96.80
3190;DHT22;1606;51.946;10.558;2024-03-08T15:48:22;11.10;97.00
3190;DHT22;1606;51.946;10.558;2024-03-08T15:50:50;11.20;97.20
3190;DHT22;1606;51.946;10.558;2024-03-08T15:53:18;11.20;97.00
3190;DHT22;1606;51.946;10.558;2024-03-08T15:55:46;11.40;97.50
3190;DHT22;1606;51.946;10.558;2024-03-08T15:58:15;11.40;97.10
3190;DHT22;1606;51.946;10.558;2024-03-08T16:00:43;11.40;97.20
3190;DHT22;1606;51.946;10.558;2024-03-08T16:03:14;11.50;97.40
3190;DHT22;1606;51.946;10.558;2024-03-08T16:05:44;11.60;97.10
3190;DHT22;1606;51.946;10.558;2024-03-08T16:08:13;11.50;97.00
3190;DHT22;1606;51.946;10.558;2024-03-08T16:10:44;11.50;97.00